Arlington Center, Vermont
Current Conditions -  °F | °C
As of 11:43 PM on Wednesday 26 Nov 2014 (Local Time) from KDDH Reporting Station
Light Snow Light Snow  
Wind Chill: 23°   Ceiling: 1700
Heat Index: 29°   Visibility: 3mi
Dew Point: 26°   Wind: 6mph
Humidity: 89%   Direction: 310°NW
Pressure: 29.83"   Gusts: NA
Location:  43.1041°N, 73.154°W
Report Text: KDDH 270443Z AUTO 31005KT 3SM -SN BR OVC017 M02/M03 A2983 RMK AO2 P0001 T10171033
Loading
Personal Weather Stations






























Interactive Weather Map New forecast layout! Learn more

10-Day Weather Forecast

Advertisements
Track Severe Weather on mobile